Time;durP1;ratioP1;P1;durP2;ratioP2;P2;SDS_P1;SDS_P2;PMS_P1;PMS_P2;Temp;Humidity;BMP_temperature;BMP_pressure;BME280_temperature;BME280_humidity;BME280_pressure;Samples;Min_cycle;Max_cycle;Signal;HPM_P1;HPM_P2
2024/01/01 00:03:11;;;;;;;77.75;38.05;;;;;;;8.95;70.39;99262.72;10377508;28;20045;-64
2024/01/01 00:08:12;;;;;;;55.75;28.67;;;;;;;8.95;70.66;99264.59;10394981;28;20081;-64
2024/01/01 00:13:14;;;;;;;37.45;21.23;;;;;;;8.91;70.58;99275.66;10385553;28;20052;-63
2024/01/01 00:18:16;;;;;;;29.10;15.55;;;;;;;9.02;70.56;99270.81;10384899;28;20041;-64
2024/01/01 00:23:17;;;;;;;24.92;13.18;;;;;;;9.06;70.38;99272.09;10383743;28;20523;-63
2024/01/01 00:28:19;;;;;;;22.13;9.55;;;;;;;9.06;70.24;99272.09;10379618;28;20046;-64
2024/01/01 00:33:20;;;;;;;23.55;9.75;;;;;;;9.13;70.43;99272.97;10373236;28;20042;-63
2024/01/01 00:38:22;;;;;;;18.98;8.45;;;;;;;9.17;70.05;99260.03;10390879;28;20081;-61
2024/01/01 00:43:23;;;;;;;22.92;10.57;;;;;;;9.20;70.06;99260.47;10397314;28;20054;-62
2024/01/01 00:48:24;;;;;;;21.92;7.75;;;;;;;9.20;69.89;99257.78;10386087;28;20037;-65
2024/01/01 00:53:26;;;;;;;14.90;7.78;;;;;;;9.28;69.48;99271.03;10394791;28;20042;-63
2024/01/01 00:58:27;;;;;;;16.67;7.97;;;;;;;9.28;69.37;99260.31;10383004;28;20060;-59
2024/01/01 01:03:29;;;;;;;20.55;9.82;;;;;;;9.22;69.53;99266.47;10375324;28;20083;-61
2024/01/01 01:08:31;;;;;;;20.00;9.48;;;;;;;9.11;69.86;99267.81;10383046;28;20050;-61
2024/01/01 01:13:32;;;;;;;22.60;7.80;;;;;;;9.04;69.80;99274.13;10376752;28;20049;-62
2024/01/01 01:18:34;;;;;;;22.02;9.43;;;;;;;9.12;69.48;99284.72;10372014;28;20049;-59
2024/01/01 01:23:35;;;;;;;18.05;9.18;;;;;;;9.08;69.71;99286.13;10376339;28;20521;-60
2024/01/01 01:28:37;;;;;;;20.63;8.55;;;;;;;9.13;69.64;99286.38;10371795;28;20436;-61
2024/01/01 01:33:38;;;;;;;20.42;9.35;;;;;;;9.11;69.55;99294.63;10352627;28;20045;-62
2024/01/01 01:38:40;;;;;;;23.67;11.07;;;;;;;9.06;69.70;99296.22;10371140;28;20061;-60
2024/01/01 01:43:41;;;;;;;25.02;12.07;;;;;;;8.95;69.60;99297.56;10370345;28;20033;-60
2024/01/01 01:48:43;;;;;;;23.05;11.48;;;;;;;8.92;69.85;99309.47;10363691;28;20045;-59
2024/01/01 01:53:45;;;;;;;28.08;14.00;;;;;;;9.04;69.71;99306.28;10373041;28;20046;-60
2024/01/01 01:58:47;;;;;;;24.52;13.00;;;;;;;9.09;69.53;99298.50;10378958;28;20052;-60
2024/01/01 02:03:49;;;;;;;25.08;14.07;;;;;;;9.07;69.64;99330.88;10372616;28;20045;-61
2024/01/01 02:08:50;;;;;;;29.05;15.85;;;;;;;8.60;70.90;99294.72;10859079;23;20052;-61
2024/01/01 02:13:52;;;;;;;31.88;15.05;;;;;;;8.41;71.48;99306.88;10431821;28;20041;-62
2024/01/01 02:18:53;;;;;;;31.67;15.00;;;;;;;8.38;71.42;99307.22;10444883;28;20049;-63
2024/01/01 02:23:55;;;;;;;32.47;15.35;;;;;;;8.43;71.64;99295.97;10446483;28;20037;-62
2024/01/01 02:28:56;;;;;;;33.47;15.05;;;;;;;8.45;71.75;99294.78;10457989;28;20048;-63
2024/01/01 02:33:58;;;;;;;26.40;13.95;;;;;;;8.50;71.53;99281.63;10449256;28;20049;-63
2024/01/01 02:38:59;;;;;;;37.53;12.75;;;;;;;8.58;71.63;99286.03;10460959;28;20048;-63
2024/01/01 02:44:02;;;;;;;22.88;11.38;;;;;;;8.64;71.52;99296.00;10439657;28;20148;-63
2024/01/01 02:49:03;;;;;;;28.05;12.98;;;;;;;8.63;71.73;99290.81;10439162;28;20063;-63
2024/01/01 02:54:06;;;;;;;22.88;10.15;;;;;;;8.67;71.78;99294.81;10428340;28;20049;-63
2024/01/01 02:59:08;;;;;;;19.48;8.90;;;;;;;8.71;71.66;99296.09;10426307;28;20146;-63
2024/01/01 03:04:09;;;;;;;19.08;8.77;;;;;;;8.73;71.74;99302.91;10423838;28;20075;-63
2024/01/01 03:09:11;;;;;;;21.20;8.00;;;;;;;8.78;71.72;99305.00;10424266;28;20052;-63
2024/01/01 03:14:12;;;;;;;16.90;6.20;;;;;;;8.85;71.56;99303.25;10425296;28;20040;-63
2024/01/01 03:19:14;;;;;;;21.55;7.78;;;;;;;8.95;71.37;99302.91;10425185;28;20125;-61
2024/01/01 03:24:15;;;;;;;12.55;6.05;;;;;;;8.93;71.33;99304.97;10418410;28;20046;-60
2024/01/01 03:29:17;;;;;;;16.02;5.43;;;;;;;8.97;71.16;99313.47;10412849;28;20053;-62
2024/01/01 03:34:19;;;;;;;10.55;4.43;;;;;;;9.04;71.09;99309.78;10419243;28;20049;-61
2024/01/01 03:39:20;;;;;;;11.68;4.57;;;;;;;9.02;71.26;99313.69;10422514;28;20045;-61
2024/01/01 03:44:22;;;;;;;9.98;3.58;;;;;;;8.96;71.22;99307.25;10418260;28;20057;-61
2024/01/01 03:49:24;;;;;;;7.93;3.17;;;;;;;9.03;70.99;99300.09;10417074;28;20056;-61
2024/01/01 03:54:26;;;;;;;11.48;2.10;;;;;;;9.07;70.46;99287.16;10419309;28;20045;-61
2024/01/01 03:59:27;;;;;;;12.10;2.08;;;;;;;9.07;70.09;99289.84;10398557;28;20054;-61
2024/01/01 04:04:28;;;;;;;10.15;1.50;;;;;;;9.08;70.12;99288.81;10421750;28;20045;-61
2024/01/01 04:09:30;;;;;;;5.95;1.05;;;;;;;9.06;69.81;99286.34;10423533;28;20057;-61
2024/01/01 04:14:31;;;;;;;4.55;0.77;;;;;;;8.99;70.05;99293.47;10416823;28;20045;-62
2024/01/01 04:19:33;;;;;;;8.02;1.10;;;;;;;8.89;69.99;99299.16;10418014;28;20107;-60
2024/01/01 04:24:34;;;;;;;3.15;0.77;;;;;;;8.92;70.16;99303.28;10401870;28;20052;-60
2024/01/01 04:29:36;;;;;;;6.75;1.58;;;;;;;9.06;69.50;99321.19;10434034;28;20040;-63
2024/01/01 04:34:37;;;;;;;5.68;0.90;;;;;;;9.11;69.37;99313.38;10422603;28;20057;-63
2024/01/01 04:39:39;;;;;;;9.85;1.42;;;;;;;9.15;69.33;99318.38;10418471;28;20095;-63
2024/01/01 04:44:40;;;;;;;5.45;1.05;;;;;;;9.18;69.31;99307.25;10422401;28;20041;-63
2024/01/01 04:49:41;;;;;;;6.00;1.20;;;;;;;9.14;69.29;99301.44;10422828;28;20045;-63
2024/01/01 04:54:43;;;;;;;11.07;0.98;;;;;;;9.12;69.13;99301.66;10416660;28;20059;-62
2024/01/01 04:59:44;;;;;;;5.93;0.65;;;;;;;9.10;69.04;99292.13;10427315;28;20040;-63
2024/01/01 05:04:46;;;;;;;6.43;0.63;;;;;;;9.04;69.15;99293.72;10417077;28;20041;-63
2024/01/01 05:09:47;;;;;;;3.47;0.50;;;;;;;8.96;69.12;99303.75;10399373;28;20050;-63
2024/01/01 05:14:49;;;;;;;12.55;2.70;;;;;;;8.96;69.07;99306.44;10383230;28;20061;-63
2024/01/01 05:19:50;;;;;;;7.00;0.77;;;;;;;8.93;68.86;99304.97;10359976;28;20053;-63
2024/01/01 05:24:52;;;;;;;5.57;0.47;;;;;;;8.88;68.88;99312.75;10418935;28;20049;-64
2024/01/01 05:29:53;;;;;;;3.17;0.60;;;;;;;8.86;68.58;99301.38;10397274;28;20044;-63
2024/01/01 05:34:54;;;;;;;3.05;0.40;;;;;;;8.78;68.51;99296.97;10420188;28;20496;-64
2024/01/01 05:39:56;;;;;;;4.32;0.93;;;;;;;8.77;68.46;99318.59;10448889;28;20041;-63
2024/01/01 05:44:57;;;;;;;3.65;0.60;;;;;;;8.72;68.61;99319.16;10447882;28;20116;-63
2024/01/01 05:49:59;;;;;;;6.72;0.35;;;;;;;8.68;68.41;99323.25;10452256;28;20112;-63
2024/01/01 05:55:00;;;;;;;2.35;0.30;;;;;;;8.66;68.66;99333.31;10449765;28;20143;-63
2024/01/01 06:00:04;;;;;;;8.52;0.80;;;;;;;8.62;68.27;99329.38;10451899;28;20583;-62
2024/01/01 06:05:05;;;;;;;3.83;0.30;;;;;;;8.50;68.66;99342.41;10451366;28;20077;-63
2024/01/01 06:10:07;;;;;;;2.45;0.20;;;;;;;8.48;68.85;99345.28;10471463;28;20076;-63
2024/01/01 06:15:09;;;;;;;5.68;0.22;;;;;;;8.46;68.68;99355.34;10491633;28;20045;-63
2024/01/01 06:20:10;;;;;;;2.35;0.25;;;;;;;8.43;68.71;99353.06;10470194;28;20075;-63
2024/01/01 06:25:13;;;;;;;3.63;0.63;;;;;;;8.41;68.86;99362.25;10475579;28;20835;-63
2024/01/01 06:30:14;;;;;;;1.02;0.20;;;;;;;8.32;68.79;99362.34;10484309;28;20055;-64
2024/01/01 06:35:15;;;;;;;8.38;0.55;;;;;;;8.32;68.87;99377.59;10490600;28;20037;-63
2024/01/01 06:40:17;;;;;;;7.10;0.98;;;;;;;8.30;68.83;99382.28;10498895;28;20048;-63
2024/01/01 06:45:18;;;;;;;3.97;0.40;;;;;;;8.24;69.00;99383.03;10492089;28;20045;-64
2024/01/01 06:50:20;;;;;;;1.58;0.30;;;;;;;8.32;68.49;99402.50;10465878;28;20114;-61
2024/01/01 06:55:24;;;;;;;3.70;0.55;;;;;;;8.41;68.84;99415.78;10462997;28;20048;-61
2024/01/01 07:00:26;;;;;;;3.92;0.60;;;;;;;8.62;68.44;99415.09;10458728;28;20056;-61
2024/01/01 07:05:30;;;;;;;8.95;0.45;;;;;;;8.73;68.81;99419.97;10460300;28;20135;-61
2024/01/01 07:10:32;;;;;;;5.07;1.10;;;;;;;8.82;68.27;99416.16;10462225;28;20040;-62
2024/01/01 07:15:33;;;;;;;5.72;0.68;;;;;;;8.77;68.51;99423.09;10461427;28;20060;-60
2024/01/01 07:20:35;;;;;;;5.68;1.40;;;;;;;8.80;68.17;99436.94;10459913;28;20048;-61
2024/01/01 07:25:36;;;;;;;4.75;0.40;;;;;;;8.84;68.29;99435.56;10464197;28;20051;-67
2024/01/01 07:30:38;;;;;;;9.60;0.90;;;;;;;8.82;68.23;99445.63;10459918;28;20099;-68
2024/01/01 07:35:39;;;;;;;5.05;0.13;;;;;;;8.74;68.28;99445.72;10455061;28;20049;-68
2024/01/01 07:40:41;;;;;;;5.07;0.40;;;;;;;8.54;68.72;99462.38;10481047;28;20051;-68
2024/01/01 07:45:42;;;;;;;4.45;0.52;;;;;;;8.50;68.51;99462.94;10476733;28;20044;-68
2024/01/01 07:50:44;;;;;;;6.43;0.85;;;;;;;8.54;68.42;99472.25;10474916;28;20045;-67
2024/01/01 07:55:46;;;;;;;5.78;0.38;;;;;;;8.61;68.17;99462.47;10457066;28;20045;-67
2024/01/01 08:00:47;;;;;;;3.25;0.10;;;;;;;8.69;67.87;99467.75;10470714;28;20131;-67
2024/01/01 08:05:49;;;;;;;2.47;0.30;;;;;;;8.68;67.97;99460.69;10471484;28;20045;-67
2024/01/01 08:10:53;;;;;;;6.43;0.35;;;;;;;8.70;67.74;99455.16;10477030;28;20052;-68
2024/01/01 08:15:54;;;;;;;8.25;0.32;;;;;;;8.70;67.97;99468.56;10472300;28;20076;-67
2024/01/01 08:20:55;;;;;;;3.42;0.30;;;;;;;8.79;67.87;99469.28;10456483;28;20049;-67
2024/01/01 08:25:57;;;;;;;3.70;0.43;;;;;;;8.87;67.62;99469.22;10476251;28;20036;-68
2024/01/01 08:30:59;;;;;;;13.73;2.65;;;;;;;8.87;67.60;99461.16;10471405;28;20139;-67
2024/01/01 08:36:01;;;;;;;0.75;0.30;;;;;;;8.80;67.84;99462.91;10450795;28;20044;-67
2024/01/01 08:41:03;;;;;;;5.45;0.63;;;;;;;8.68;68.09;99463.38;10474090;28;20032;-67
2024/01/01 08:46:05;;;;;;;10.73;0.95;;;;;;;8.63;68.22;99475.66;10466572;28;20044;-65
2024/01/01 08:51:06;;;;;;;5.95;0.45;;;;;;;8.58;68.20;99480.75;10466673;28;20045;-67
2024/01/01 08:56:08;;;;;;;6.53;0.70;;;;;;;8.61;68.06;99475.03;10467206;28;20140;-66
2024/01/01 09:01:09;;;;;;;6.65;0.90;;;;;;;8.71;67.80;99475.59;10467164;28;20041;-66
2024/01/01 09:06:11;;;;;;;5.75;0.80;;;;;;;8.86;67.55;99486.28;10473743;28;20040;-67
2024/01/01 09:11:13;;;;;;;8.63;1.77;;;;;;;9.03;67.42;99492.28;10489337;28;20056;-67
2024/01/01 09:16:14;;;;;;;3.40;0.45;;;;;;;9.25;67.07;99499.34;10500670;28;20079;-67
2024/01/01 09:21:16;;;;;;;8.32;0.60;;;;;;;9.57;66.66;99499.09;10484761;28;20061;-67
2024/01/01 09:26:17;;;;;;;6.68;0.73;;;;;;;9.80;66.36;99494.38;10478623;28;20527;-67
2024/01/01 09:31:19;;;;;;;5.05;0.50;;;;;;;9.85;66.26;99501.81;10484503;28;20040;-67
2024/01/01 09:36:20;;;;;;;7.30;0.82;;;;;;;9.90;65.91;99505.59;10463153;28;20071;-67
2024/01/01 09:41:26;;;;;;;7.00;0.40;;;;;;;9.95;65.47;99510.38;10480178;28;20124;-67
2024/01/01 09:46:32;;;;;;;4.15;0.30;;;;;;;9.97;65.51;99523.63;10488476;28;20052;-68
2024/01/01 09:51:40;;;;;;;4.63;0.30;;;;;;;9.94;64.95;99514.09;10491061;28;20044;-67
2024/01/01 09:56:42;;;;;;;11.43;0.50;;;;;;;9.76;65.59;99527.16;10507333;28;20040;-68
2024/01/01 10:02:01;;;;;;;4.93;0.80;;;;;;;9.54;66.09;99529.81;10500662;23;20069;-68
2024/01/01 10:17:36;;;;;;;4.10;0.40;;;;;;;9.76;65.67;99529.84;11684992;22;20097;-67
2024/01/01 10:22:39;;;;;;;5.22;0.38;;;;;;;9.72;65.35;99532.06;10406055;28;20107;-67
2024/01/01 10:27:43;;;;;;;12.57;0.70;;;;;;;9.69;65.50;99545.84;10407451;28;20107;-68
2024/01/01 10:32:46;;;;;;;2.67;0.38;;;;;;;9.67;65.46;99543.34;10412365;28;20041;-67
2024/01/01 10:37:48;;;;;;;5.75;1.33;;;;;;;9.70;65.72;99540.31;10411755;28;20069;-67
2024/01/01 10:42:50;;;;;;;3.75;0.57;;;;;;;9.65;65.46;99534.66;10407979;28;20045;-68
2024/01/01 10:47:55;;;;;;;6.85;0.85;;;;;;;9.70;65.76;99534.94;10410252;28;20057;-68
2024/01/01 10:53:15;;;;;;;7.00;0.68;;;;;;;9.86;65.63;99543.78;10410632;28;20045;-68
2024/01/01 10:58:29;;;;;;;6.47;1.10;;;;;;;10.06;65.34;99533.22;10403428;28;20480;-68
2024/01/01 11:03:33;;;;;;;11.23;0.90;;;;;;;10.12;65.19;99533.25;10387541;28;20156;-67
2024/01/01 11:08:35;;;;;;;7.38;1.20;;;;;;;10.20;65.05;99526.94;10408132;28;20051;-68
2024/01/01 11:13:39;;;;;;;12.13;1.15;;;;;;;10.25;65.24;99529.88;10411408;28;20037;-68
2024/01/01 11:18:43;;;;;;;13.18;1.55;;;;;;;10.29;64.77;99543.75;10409278;28;20041;-68
2024/01/01 11:23:48;;;;;;;9.85;1.85;;;;;;;10.48;64.66;99542.25;10406248;28;20041;-68
2024/01/01 11:28:52;;;;;;;5.95;1.17;;;;;;;10.62;64.34;99548.56;10410912;28;20047;-67
2024/01/01 11:34:16;;;;;;;6.57;0.95;;;;;;;10.61;64.10;99538.84;10405007;28;20073;-70
2024/01/01 11:39:27;;;;;;;7.85;0.70;;;;;;;10.67;64.18;99538.88;10378170;28;20059;-71
2024/01/01 11:44:28;;;;;;;4.63;0.75;;;;;;;10.66;63.78;99547.13;10381703;28;20045;-70
2024/01/01 11:49:30;;;;;;;8.27;1.17;;;;;;;10.75;63.77;99554.03;10375478;28;20364;-71
2024/01/01 11:54:31;;;;;;;5.88;1.70;;;;;;;10.70;63.33;99546.56;10405619;28;20064;-68
2024/01/01 11:59:34;;;;;;;12.52;0.60;;;;;;;10.87;63.12;99557.81;10404006;28;20515;-71
2024/01/01 12:04:36;;;;;;;8.32;1.40;;;;;;;10.70;63.20;99551.09;10395424;28;20405;-70
2024/01/01 12:09:37;;;;;;;11.18;1.27;;;;;;;10.63;63.04;99553.75;10380541;28;20533;-70
2024/01/01 12:14:40;;;;;;;10.48;0.60;;;;;;;10.55;63.27;99558.44;10399534;28;20052;-70
2024/01/01 12:19:41;;;;;;;8.63;0.52;;;;;;;10.51;63.23;99563.38;10383569;28;20104;-71
2024/01/01 12:24:43;;;;;;;8.57;0.75;;;;;;;10.60;62.81;99564.06;10402994;28;20042;-71
2024/01/01 12:29:51;;;;;;;7.57;0.50;;;;;;;10.53;63.25;99561.31;10394214;28;20068;-70
2024/01/01 12:34:53;;;;;;;4.70;0.60;;;;;;;10.42;63.65;99567.22;10397161;28;20396;-71
2024/01/01 12:39:55;;;;;;;9.80;0.80;;;;;;;10.39;63.58;99573.00;10384164;28;20045;-71
2024/01/01 12:44:56;;;;;;;9.45;0.50;;;;;;;10.34;63.54;99578.13;10376718;28;20045;-70
2024/01/01 12:49:58;;;;;;;14.02;0.80;;;;;;;10.26;64.16;99576.34;10400865;28;20186;-70
2024/01/01 12:54:59;;;;;;;4.80;0.68;;;;;;;10.07;64.44;99594.78;10398135;28;20276;-71
2024/01/01 13:00:01;;;;;;;3.50;0.55;;;;;;;10.06;64.83;99598.47;10394895;28;20481;-71
2024/01/01 13:05:03;;;;;;;4.28;0.43;;;;;;;10.05;65.26;99596.84;10396495;28;20037;-70
2024/01/01 13:10:05;;;;;;;7.80;1.40;;;;;;;10.13;65.13;99604.75;10400390;28;20053;-68
2024/01/01 13:15:07;;;;;;;4.28;1.13;;;;;;;10.18;65.37;99589.94;10402303;28;20048;-70
2024/01/01 13:20:09;;;;;;;5.90;0.95;;;;;;;10.21;65.04;99582.31;10411551;28;20095;-66
2024/01/01 13:25:11;;;;;;;4.88;0.73;;;;;;;10.26;65.29;99579.03;10418092;28;20095;-69
2024/01/01 13:30:12;;;;;;;5.68;0.60;;;;;;;10.37;65.07;99578.56;10438513;28;20076;-70
2024/01/01 13:35:14;;;;;;;4.93;0.50;;;;;;;10.37;64.88;99581.25;10438225;28;20202;-70
2024/01/01 13:40:15;;;;;;;10.68;0.70;;;;;;;10.40;64.88;99583.53;10428946;28;20056;-70
2024/01/01 13:45:17;;;;;;;9.30;0.40;;;;;;;10.45;65.15;99588.34;10439188;28;20037;-70
2024/01/01 13:50:19;;;;;;;5.28;1.10;;;;;;;10.49;64.88;99589.63;10425936;28;20040;-66
2024/01/01 13:55:21;;;;;;;9.68;0.60;;;;;;;10.56;64.92;99595.84;10446695;28;20049;-67
2024/01/01 14:00:27;;;;;;;5.28;0.43;;;;;;;10.55;64.68;99604.13;10422077;28;20049;-71
2024/01/01 14:05:28;;;;;;;9.85;1.38;;;;;;;10.58;64.63;99603.72;10461915;28;20399;-65
2024/01/01 14:10:30;;;;;;;9.02;1.00;;;;;;;10.58;64.24;99607.25;10448681;28;20198;-67
2024/01/01 14:15:32;;;;;;;14.07;0.88;;;;;;;10.57;64.21;99615.53;10415406;28;20048;-66
2024/01/01 14:20:35;;;;;;;5.63;0.70;;;;;;;10.52;64.20;99613.41;10448465;28;20048;-65
2024/01/01 14:25:37;;;;;;;7.82;1.08;;;;;;;10.57;63.66;99628.97;10412161;28;20060;-66
2024/01/01 14:30:38;;;;;;;8.07;1.92;;;;;;;10.59;63.61;99625.03;10457788;28;20049;-66
2024/01/01 14:35:40;;;;;;;8.43;1.05;;;;;;;10.57;63.39;99639.72;10455286;28;20044;-63
2024/01/01 14:40:42;;;;;;;12.13;1.77;;;;;;;10.52;62.92;99641.13;10452249;28;20072;-64
2024/01/01 14:45:44;;;;;;;13.40;1.00;;;;;;;10.53;62.78;99636.56;10419437;28;20041;-63
2024/01/01 14:50:48;;;;;;;5.95;0.80;;;;;;;10.51;62.93;99644.00;10429239;28;20041;-62
2024/01/01 14:55:49;;;;;;;9.68;0.68;;;;;;;10.48;62.57;99664.00;10449951;28;20049;-65
2024/01/01 15:00:51;;;;;;;11.38;0.80;;;;;;;10.35;62.95;99666.59;10449271;28;20152;-63
2024/01/01 15:05:52;;;;;;;7.47;0.60;;;;;;;10.20;62.83;99674.66;10454116;28;20626;-65
2024/01/01 15:10:57;;;;;;;11.00;1.25;;;;;;;10.20;62.75;99687.25;10434990;28;20041;-65
2024/01/01 15:15:59;;;;;;;9.02;0.90;;;;;;;10.20;62.51;99688.06;10418471;28;20052;-68
2024/01/01 15:21:01;;;;;;;10.93;1.85;;;;;;;10.21;62.71;99694.28;10421713;28;20051;-67
2024/01/01 15:26:05;;;;;;;9.35;1.10;;;;;;;10.16;62.72;99702.09;10442111;28;20127;-68
2024/01/01 15:31:07;;;;;;;7.03;0.80;;;;;;;10.07;62.65;99709.41;10442422;28;20044;-71
2024/01/01 15:36:09;;;;;;;6.63;1.70;;;;;;;10.08;62.34;99706.53;10443941;28;20048;-70
2024/01/01 15:41:11;;;;;;;12.70;1.20;;;;;;;10.08;62.60;99709.22;10440548;28;20057;-70
2024/01/01 15:46:13;;;;;;;5.88;1.50;;;;;;;10.11;62.41;99710.69;10435324;28;20053;-68
2024/01/01 15:51:18;;;;;;;12.15;2.15;;;;;;;10.12;62.22;99704.31;10439465;28;20053;-69
2024/01/01 15:56:22;;;;;;;8.97;1.43;;;;;;;10.08;62.57;99711.91;10445262;28;20365;-69
2024/01/01 16:01:23;;;;;;;10.82;1.17;;;;;;;10.10;62.50;99714.41;10441133;28;20599;-66
2024/01/01 16:06:25;;;;;;;6.60;1.95;;;;;;;10.12;62.12;99705.13;10432831;28;20052;-67
2024/01/01 16:11:27;;;;;;;15.43;1.70;;;;;;;9.97;62.92;99715.06;10439078;28;20065;-70
2024/01/01 16:16:30;;;;;;;7.25;1.20;;;;;;;9.91;62.55;99711.31;10445799;28;20045;-72
2024/01/01 16:21:31;;;;;;;17.83;1.38;;;;;;;9.90;62.63;99714.16;10444232;28;20087;-67
2024/01/01 16:26:38;;;;;;;12.80;1.00;;;;;;;9.85;62.97;99725.47;10424634;28;20049;-65
2024/01/01 16:31:41;;;;;;;10.02;1.38;;;;;;;9.86;62.80;99729.00;10445373;28;20048;-65
2024/01/01 16:36:51;;;;;;;11.77;0.93;;;;;;;9.86;62.90;99745.09;10445302;28;20061;-68
2024/01/01 16:41:54;;;;;;;13.43;0.85;;;;;;;9.84;62.73;99747.97;10435031;28;20037;-69
2024/01/01 16:46:56;;;;;;;11.93;1.00;;;;;;;9.82;63.23;99741.94;10434750;28;20049;-69
2024/01/01 16:51:57;;;;;;;8.65;0.90;;;;;;;9.86;62.89;99737.88;10443749;28;20612;-64
2024/01/01 16:56:59;;;;;;;9.27;1.02;;;;;;;9.81;63.24;99736.75;10457757;28;20065;-63
2024/01/01 17:02:00;;;;;;;10.50;1.50;;;;;;;9.76;63.01;99733.81;10451310;28;20045;-63
2024/01/01 17:07:05;;;;;;;15.40;1.30;;;;;;;9.68;63.23;99740.94;10441943;28;20040;-63
2024/01/01 17:12:07;;;;;;;11.52;2.45;;;;;;;9.72;63.37;99734.19;10428134;28;20187;-65
2024/01/01 17:17:08;;;;;;;6.20;0.93;;;;;;;9.79;63.42;99746.84;10445986;28;20095;-64
2024/01/01 17:22:10;;;;;;;11.93;1.70;;;;;;;9.80;63.31;99754.72;10436665;28;20045;-64
2024/01/01 17:27:12;;;;;;;17.92;6.18;;;;;;;9.85;63.11;99765.75;10437142;28;20049;-64
2024/01/01 17:32:15;;;;;;;12.75;1.20;;;;;;;9.85;62.86;99770.25;10456583;28;20045;-65
2024/01/01 17:37:20;;;;;;;11.00;2.25;;;;;;;9.90;63.09;99774.06;10455911;28;20040;-64
2024/01/01 17:42:22;;;;;;;7.18;1.23;;;;;;;9.99;62.97;99782.00;10448236;28;20548;-65
2024/01/01 17:47:23;;;;;;;12.02;1.38;;;;;;;9.96;63.06;99771.66;10410752;28;20451;-62
2024/01/01 17:52:25;;;;;;;19.33;2.83;;;;;;;9.97;62.88;99787.56;10439882;28;20064;-60
2024/01/01 17:57:26;;;;;;;13.65;1.45;;;;;;;9.96;62.84;99785.09;10423321;28;20053;-60
2024/01/01 18:02:28;;;;;;;6.85;0.70;;;;;;;9.96;62.73;99787.78;10444901;28;20132;-60
2024/01/01 18:07:30;;;;;;;9.65;1.70;;;;;;;9.97;63.10;99786.72;10440030;28;20044;-60
2024/01/01 18:12:31;;;;;;;10.30;1.40;;;;;;;9.96;63.19;99779.72;10441031;28;20075;-62
2024/01/01 18:17:33;;;;;;;8.10;1.33;;;;;;;9.97;62.90;99773.31;10431725;28;20053;-60
2024/01/01 18:22:35;;;;;;;14.15;1.30;;;;;;;9.90;62.98;99774.06;10430587;28;20044;-60
2024/01/01 18:27:36;;;;;;;7.60;0.90;;;;;;;9.91;62.82;99785.63;10422213;28;20037;-61
2024/01/01 18:32:38;;;;;;;15.07;1.80;;;;;;;9.82;63.26;99789.44;10436626;28;20048;-61
2024/01/01 18:37:39;;;;;;;15.98;1.98;;;;;;;9.68;63.52;99775.00;10435032;28;20045;-60
2024/01/01 18:42:41;;;;;;;12.05;1.98;;;;;;;9.61;63.40;99777.56;10442219;28;20056;-59
2024/01/01 18:47:42;;;;;;;10.82;1.45;;;;;;;9.49;63.65;99776.34;10444337;28;20088;-60
2024/01/01 18:52:44;;;;;;;11.13;1.17;;;;;;;9.33;63.77;99772.81;10424780;28;20044;-61
2024/01/01 18:57:45;;;;;;;17.08;1.77;;;;;;;9.23;64.07;99772.25;10450351;28;20135;-60
2024/01/01 19:02:47;;;;;;;8.70;1.38;;;;;;;9.15;64.57;99758.91;10453724;28;20045;-61
2024/01/01 19:07:50;;;;;;;8.05;0.88;;;;;;;9.11;64.26;99771.00;10456004;28;20048;-60
2024/01/01 19:12:51;;;;;;;11.13;1.10;;;;;;;9.06;64.26;99782.28;10427308;28;20072;-60
2024/01/01 19:17:53;;;;;;;10.85;1.70;;;;;;;9.11;64.42;99779.88;10441879;28;20050;-60
2024/01/01 19:22:55;;;;;;;11.35;2.35;;;;;;;9.14;64.23;99784.03;10425974;28;20060;-60
2024/01/01 19:27:56;;;;;;;6.72;1.30;;;;;;;9.15;64.11;99775.00;10447677;28;20519;-61
2024/01/01 19:32:57;;;;;;;12.68;1.13;;;;;;;9.21;64.20;99770.75;10422526;28;20049;-59
2024/01/01 19:37:59;;;;;;;9.45;2.28;;;;;;;9.22;64.08;99767.06;10445599;28;20049;-61
2024/01/01 19:43:01;;;;;;;14.60;2.42;;;;;;;9.28;64.15;99769.00;10425233;28;20057;-59
2024/01/01 19:48:02;;;;;;;12.20;0.75;;;;;;;9.28;64.48;99771.69;10437911;28;20228;-61
2024/01/01 19:53:04;;;;;;;8.43;0.70;;;;;;;9.30;64.39;99762.47;10417368;28;20095;-59
2024/01/01 19:58:24;;;;;;;11.57;1.23;;;;;;;9.33;64.25;99761.25;10405786;28;20045;-59
2024/01/01 20:03:26;;;;;;;6.15;1.17;;;;;;;9.33;64.40;99763.94;10414262;28;20311;-60
2024/01/01 20:08:28;;;;;;;13.93;1.83;;;;;;;9.36;64.13;99760.03;10415783;28;20037;-60
2024/01/01 20:13:40;;;;;;;9.25;1.15;;;;;;;9.30;64.75;99757.09;10438044;28;20045;-60
2024/01/01 20:18:42;;;;;;;9.68;1.50;;;;;;;9.33;64.59;99750.53;10437983;28;20053;-61
2024/01/01 20:23:44;;;;;;;18.88;0.85;;;;;;;9.28;64.60;99763.63;10430390;28;20040;-62
2024/01/01 20:28:46;;;;;;;9.98;0.60;;;;;;;9.32;64.93;99755.06;10454633;28;20053;-61
2024/01/01 20:33:48;;;;;;;8.88;0.57;;;;;;;9.43;64.72;99742.22;10441776;28;20098;-61
2024/01/01 20:38:56;;;;;;;10.40;1.63;;;;;;;9.47;64.64;99727.41;10450755;28;20686;-60
2024/01/01 20:43:57;;;;;;;6.63;0.55;;;;;;;9.47;64.76;99732.78;10452068;28;20049;-61
2024/01/01 20:49:00;;;;;;;7.95;0.65;;;;;;;9.45;65.03;99716.03;10431470;28;20063;-60
2024/01/01 20:54:02;;;;;;;7.60;1.25;;;;;;;9.47;64.98;99706.78;10438458;28;20068;-60
2024/01/01 20:59:07;;;;;;;11.55;1.50;;;;;;;9.39;65.29;99704.19;10445726;28;20115;-60
2024/01/01 21:04:09;;;;;;;6.68;1.00;;;;;;;9.38;65.39;99691.81;10444042;28;20037;-61
2024/01/01 21:09:11;;;;;;;7.50;1.52;;;;;;;9.43;65.34;99697.44;10457593;28;20049;-61
2024/01/01 21:14:12;;;;;;;9.93;1.23;;;;;;;9.40;65.59;99683.56;10449785;28;20127;-61
2024/01/01 21:19:14;;;;;;;8.30;1.15;;;;;;;9.45;65.26;99668.56;10447434;28;20623;-62
2024/01/01 21:24:16;;;;;;;13.85;2.45;;;;;;;9.49;65.35;99675.22;10450818;28;20075;-62
2024/01/01 21:29:17;;;;;;;7.13;0.95;;;;;;;9.42;65.84;99654.69;10439590;28;20036;-62
2024/01/01 21:34:19;;;;;;;17.67;1.40;;;;;;;9.46;65.67;99653.34;10443905;28;20048;-62
2024/01/01 21:39:20;;;;;;;9.10;0.70;;;;;;;9.44;65.74;99647.28;10415503;28;20055;-62
2024/01/01 21:44:22;;;;;;;5.22;0.65;;;;;;;9.42;65.87;99646.66;10440862;28;20159;-62
2024/01/01 21:49:23;;;;;;;6.82;0.80;;;;;;;9.46;65.87;99653.34;10442760;28;20044;-61
2024/01/01 21:54:24;;;;;;;12.10;1.38;;;;;;;9.53;65.75;99644.31;10441015;28;20042;-61
2024/01/01 21:59:26;;;;;;;7.55;0.68;;;;;;;9.51;65.88;99640.19;10436361;28;20037;-63
2024/01/01 22:04:27;;;;;;;8.38;0.80;;;;;;;9.52;65.78;99640.00;10440117;28;20061;-63
2024/01/01 22:09:29;;;;;;;6.32;1.52;;;;;;;9.58;65.72;99648.28;10449790;28;20037;-63
2024/01/01 22:14:30;;;;;;;9.45;0.90;;;;;;;9.65;65.46;99643.84;10454647;28;20041;-62
2024/01/01 22:19:32;;;;;;;9.85;0.88;;;;;;;9.61;65.55;99651.44;10445798;28;20114;-63
2024/01/01 22:24:33;;;;;;;3.95;0.50;;;;;;;9.56;66.22;99644.97;10432467;28;20041;-63
2024/01/01 22:29:35;;;;;;;9.25;0.93;;;;;;;9.47;66.42;99639.72;10444605;28;20040;-60
2024/01/01 22:34:37;;;;;;;11.13;1.20;;;;;;;9.42;66.57;99641.28;10441410;28;20146;-60
2024/01/01 22:39:40;;;;;;;3.42;1.35;;;;;;;9.29;66.82;99634.72;10443846;28;20056;-60
2024/01/01 22:44:42;;;;;;;5.95;0.70;;;;;;;9.08;67.32;99640.00;10454672;28;20503;-61
2024/01/01 22:49:43;;;;;;;5.03;0.88;;;;;;;8.96;67.84;99638.78;10438498;28;20045;-61
2024/01/01 22:54:44;;;;;;;7.03;0.90;;;;;;;8.81;68.38;99625.38;10461271;28;20055;-63
2024/01/01 22:59:46;;;;;;;6.03;0.80;;;;;;;8.58;69.10;99625.41;10456699;28;20041;-61
2024/01/01 23:04:48;;;;;;;6.28;0.47;;;;;;;8.48;69.51;99620.31;10451967;28;20047;-61
2024/01/01 23:09:49;;;;;;;4.45;0.43;;;;;;;8.48;69.74;99614.94;10443430;28;20487;-62
2024/01/01 23:14:51;;;;;;;6.60;0.50;;;;;;;8.44;69.94;99609.13;10446005;28;20060;-61
2024/01/01 23:19:52;;;;;;;9.95;1.77;;;;;;;8.33;69.90;99588.94;10439811;28;20057;-61
2024/01/01 23:24:53;;;;;;;6.07;1.50;;;;;;;8.34;70.18;99573.69;10438982;28;20063;-61
2024/01/01 23:29:55;;;;;;;9.77;1.27;;;;;;;8.33;70.57;99570.19;10440603;28;20044;-63
2024/01/01 23:34:56;;;;;;;4.82;0.95;;;;;;;8.29;70.76;99560.00;10440039;28;20404;-62
2024/01/01 23:39:59;;;;;;;9.40;0.80;;;;;;;8.32;70.63;99554.31;10445640;28;20049;-62